Time;durP1;ratioP1;P1;durP2;ratioP2;P2;SDS_P1;SDS_P2;PMS_P1;PMS_P2;Temp;Humidity;BMP_temperature;BMP_pressure;BME280_temperature;BME280_humidity;BME280_pressure;Samples;Min_cycle;Max_cycle;Signal;HPM_P1;HPM_P2
2023/01/03 00:02:27;;;;;;;8.48;2.08;;;28.00;99.90;;;;;;5022856;28;20712;-80
2023/01/03 00:04:58;;;;;;;9.25;1.75;;;28.00;99.90;;;;;;5034271;28;20191;-80
2023/01/03 00:07:35;;;;;;;8.18;1.83;;;28.00;99.90;;;;;;5036596;28;20713;-80
2023/01/03 00:10:07;;;;;;;8.77;1.90;;;28.20;99.90;;;;;;5036342;28;20192;-79
2023/01/03 00:12:40;;;;;;;8.13;1.73;;;28.20;99.90;;;;;;5022482;28;20195;-79
2023/01/03 00:15:13;;;;;;;6.20;1.67;;;28.20;99.90;;;;;;5028056;28;20673;-79
2023/01/03 00:17:44;;;;;;;5.20;1.80;;;28.50;99.90;;;;;;5023347;28;20225;-81
2023/01/03 00:20:14;;;;;;;8.13;1.60;;;28.50;99.90;;;;;;5026091;28;20198;-83
2023/01/03 00:22:45;;;;;;;6.63;1.80;;;28.30;99.90;;;;;;5030272;28;20756;-81
2023/01/03 00:25:16;;;;;;;5.55;1.67;;;28.40;99.90;;;;;;5015931;28;20221;-79
2023/01/03 00:27:49;;;;;;;9.20;1.70;;;28.50;99.90;;;;;;5017984;28;20654;-80
2023/01/03 00:30:20;;;;;;;7.00;1.60;;;28.80;99.90;;;;;;5016080;28;20765;-80
2023/01/03 00:32:51;;;;;;;5.95;1.42;;;29.00;99.90;;;;;;5022593;28;20228;-80
2023/01/03 00:35:22;;;;;;;5.05;1.92;;;29.00;99.90;;;;;;5033529;28;20225;-79
2023/01/03 00:37:54;;;;;;;9.30;1.70;;;28.80;99.90;;;;;;5033672;28;20293;-79
2023/01/03 00:40:26;;;;;;;9.07;2.08;;;28.40;99.90;;;;;;5035900;28;20281;-80
2023/01/03 00:45:46;;;;;;;6.47;1.70;;;28.20;99.90;;;;;;5034265;28;20556;-78
2023/01/03 00:48:17;;;;;;;5.75;1.83;;;28.40;99.90;;;;;;5034230;28;20286;-79
2023/01/03 00:50:48;;;;;;;8.00;1.60;;;28.20;99.90;;;;;;5030330;28;20609;-79
2023/01/03 00:53:18;;;;;;;8.00;1.50;;;28.30;99.90;;;;;;5035181;28;20201;-80
2023/01/03 00:55:49;;;;;;;7.35;1.50;;;28.40;99.90;;;;;;5035379;28;20198;-78
2023/01/03 00:58:22;;;;;;;4.65;1.63;;;28.30;99.90;;;;;;5035358;28;20194;-85
2023/01/03 01:00:53;;;;;;;4.93;1.60;;;28.20;99.90;;;;;;5035347;28;20660;-79
2023/01/03 01:03:24;;;;;;;5.95;1.58;;;28.00;99.90;;;;;;5029325;28;20579;-81
2023/01/03 01:05:54;;;;;;;9.38;1.67;;;28.10;99.90;;;;;;5030930;28;20200;-79
2023/01/03 01:08:25;;;;;;;7.03;1.67;;;28.20;99.90;;;;;;5033220;28;20229;-80
2023/01/03 01:11:05;;;;;;;9.50;1.65;;;28.40;99.90;;;;;;5024995;28;20195;-80
2023/01/03 01:13:39;;;;;;;5.80;1.40;;;28.40;99.90;;;;;;5035095;28;20669;-83
2023/01/03 01:16:11;;;;;;;5.35;1.45;;;28.40;99.90;;;;;;5027220;28;20303;-80
2023/01/03 01:18:44;;;;;;;6.28;1.65;;;28.20;99.90;;;;;;5025115;28;20284;-80
2023/01/03 01:21:17;;;;;;;4.30;1.20;;;28.30;99.90;;;;;;5027358;28;20226;-79
2023/01/03 01:23:49;;;;;;;7.57;1.70;;;28.20;99.90;;;;;;5025598;28;20575;-81
2023/01/03 01:26:22;;;;;;;6.63;1.45;;;28.30;99.90;;;;;;5027565;28;20201;-82
2023/01/03 01:28:55;;;;;;;4.97;1.50;;;28.50;99.90;;;;;;5028717;28;20265;-82
2023/01/03 01:31:27;;;;;;;7.10;1.25;;;28.90;99.90;;;;;;5034829;28;20553;-80
2023/01/03 01:33:59;;;;;;;9.57;1.55;;;28.80;99.90;;;;;;5030512;28;20241;-82
2023/01/03 01:36:32;;;;;;;4.95;1.30;;;28.70;99.90;;;;;;5030771;28;20230;-86
2023/01/03 01:39:06;;;;;;;8.50;1.70;;;28.60;99.90;;;;;;5032414;28;20668;-80
2023/01/03 01:44:53;;;;;;;5.82;2.03;;;28.50;99.90;;;;;;5034683;28;20198;-81
2023/01/03 01:47:34;;;;;;;5.72;1.38;;;28.30;99.90;;;;;;5033297;28;20234;-79
2023/01/03 01:50:25;;;;;;;6.68;1.50;;;28.30;99.90;;;;;;5029097;28;20304;-84
2023/01/03 01:52:59;;;;;;;6.85;1.50;;;28.10;99.90;;;;;;5032422;28;20256;-83
2023/01/03 01:55:33;;;;;;;5.60;1.50;;;28.20;99.90;;;;;;5027307;28;20190;-81
2023/01/03 01:58:04;;;;;;;5.65;1.65;;;28.40;99.90;;;;;;5024764;28;20281;-81
2023/01/03 02:00:37;;;;;;;5.25;1.50;;;28.70;99.90;;;;;;5026014;28;20321;-81
2023/01/03 02:03:09;;;;;;;6.05;1.30;;;28.60;99.90;;;;;;5026544;28;20214;-83
2023/01/03 02:05:43;;;;;;;5.15;2.13;;;28.70;99.90;;;;;;5028585;28;20205;-87
2023/01/03 02:08:14;;;;;;;4.90;1.17;;;28.60;99.90;;;;;;5032363;28;20193;-86
2023/01/03 02:11:12;;;;;;;8.32;1.65;;;28.60;99.90;;;;;;5027609;28;20305;-81
2023/01/03 02:13:50;;;;;;;7.18;1.70;;;28.40;99.90;;;;;;5027208;28;20206;-79
2023/01/03 02:16:50;;;;;;;5.13;1.48;;;28.40;99.90;;;;;;5022666;28;20206;-80
2023/01/03 02:19:50;;;;;;;5.88;1.63;;;28.50;99.90;;;;;;5021733;28;20194;-84
2023/01/03 02:22:49;;;;;;;4.57;1.40;;;28.60;99.90;;;;;;5022895;28;20242;-82
2023/01/03 02:26:26;;;;;;;6.22;1.58;;;28.80;99.90;;;;;;5024121;28;20294;-80
2023/01/03 02:29:33;;;;;;;7.22;1.52;;;28.80;99.90;;;;;;4933957;29;20574;-84
2023/01/03 02:32:11;;;;;;;5.78;1.40;;;28.80;99.90;;;;;;4933843;29;20224;-81
2023/01/03 02:34:50;;;;;;;8.50;1.60;;;28.80;99.90;;;;;;5014067;28;20277;-83
2023/01/03 02:37:28;;;;;;;4.25;1.48;;;28.70;99.90;;;;;;5013736;28;20673;-82
2023/01/03 02:40:08;;;;;;;9.98;1.50;;;28.70;99.90;;;;;;5014016;28;20286;-82
2023/01/03 02:43:01;;;;;;;4.85;1.50;;;28.70;99.90;;;;;;5013785;28;20305;-83
2023/01/03 02:45:57;;;;;;;5.80;1.38;;;28.60;99.90;;;;;;5013568;28;20227;-83
2023/01/03 02:48:39;;;;;;;7.38;1.63;;;28.80;99.90;;;;;;5012629;28;20249;-82
2023/01/03 02:51:18;;;;;;;5.28;1.35;;;28.70;99.90;;;;;;5013705;28;20195;-80
2023/01/03 02:53:50;;;;;;;5.47;1.30;;;28.70;99.90;;;;;;5013728;28;20230;-88
2023/01/03 02:56:24;;;;;;;6.68;1.42;;;28.70;99.90;;;;;;5013753;28;20540;-80
2023/01/03 02:58:59;;;;;;;5.15;1.45;;;28.70;99.90;;;;;;5013630;28;20226;-81
2023/01/03 03:01:31;;;;;;;4.88;1.35;;;28.80;99.90;;;;;;5013454;28;20191;-81
2023/01/03 03:04:05;;;;;;;4.88;1.13;;;28.70;99.90;;;;;;5013519;28;20240;-82
2023/01/03 03:06:42;;;;;;;8.68;1.45;;;28.50;99.90;;;;;;5013523;28;20195;-80
2023/01/03 03:09:13;;;;;;;4.82;1.38;;;28.20;99.90;;;;;;5013014;28;20195;-85
2023/01/03 03:14:37;;;;;;;8.10;1.23;;;28.00;99.90;;;;;;5013652;28;20276;-83
2023/01/03 03:17:12;;;;;;;9.15;1.40;;;28.10;99.90;;;;;;5013536;28;20733;-88
2023/01/03 03:25:27;;;;;;;6.70;1.40;;;28.20;99.90;;;;;;5013522;28;20194;-82
2023/01/03 03:30:50;;;;;;;4.97;1.40;;;28.00;99.90;;;;;;5013434;28;20191;-81
2023/01/03 03:33:24;;;;;;;5.90;1.08;;;28.00;99.90;;;;;;5013125;28;20223;-80
2023/01/03 03:35:59;;;;;;;4.13;1.10;;;28.00;99.90;;;;;;5013194;28;20281;-82
2023/01/03 03:38:35;;;;;;;6.03;1.38;;;28.00;99.90;;;;;;5013469;28;20633;-80
2023/01/03 03:47:03;;;;;;;6.40;1.33;;;28.20;99.90;;;;;;5013257;28;20238;-82
2023/01/03 03:49:41;;;;;;;7.10;1.45;;;28.00;99.90;;;;;;5011429;28;20560;-80
2023/01/03 03:52:17;;;;;;;6.70;1.38;;;27.80;99.90;;;;;;5012926;28;20210;-79
2023/01/03 03:54:52;;;;;;;9.68;1.35;;;27.80;99.90;;;;;;5013125;28;20195;-90
2023/01/03 03:57:27;;;;;;;5.22;1.20;;;27.70;99.90;;;;;;5013139;28;20553;-81
2023/01/03 04:00:01;;;;;;;5.72;1.38;;;27.60;99.90;;;;;;5012845;28;20209;-82
2023/01/03 04:02:34;;;;;;;5.30;1.30;;;27.50;99.90;;;;;;5019273;28;20203;-84
2023/01/03 04:05:09;;;;;;;8.25;1.58;;;27.60;99.90;;;;;;5022566;28;20199;-81
2023/01/03 04:07:41;;;;;;;8.57;1.30;;;27.60;99.90;;;;;;5017344;28;20193;-83
2023/01/03 04:10:19;;;;;;;9.25;1.55;;;27.70;99.90;;;;;;5031978;28;20728;-80
2023/01/03 04:12:50;;;;;;;5.75;1.38;;;27.60;99.90;;;;;;4999516;28;20214;-83
2023/01/03 04:15:21;;;;;;;7.75;1.52;;;27.60;99.90;;;;;;5024200;28;20569;-77
2023/01/03 04:17:52;;;;;;;8.23;1.33;;;27.50;99.90;;;;;;5028204;28;20330;-83
2023/01/03 04:20:25;;;;;;;7.63;1.40;;;27.50;99.90;;;;;;5028466;28;20199;-80
2023/01/03 04:22:58;;;;;;;6.13;1.38;;;27.20;99.90;;;;;;5025728;28;20297;-83
2023/01/03 04:25:31;;;;;;;9.57;1.80;;;27.10;99.90;;;;;;5018093;28;20281;-80
2023/01/03 04:28:02;;;;;;;7.22;1.70;;;26.90;99.90;;;;;;5021576;28;20205;-82
2023/01/03 04:30:33;;;;;;;5.70;1.50;;;26.80;99.90;;;;;;5026510;28;20540;-81
2023/01/03 04:33:04;;;;;;;5.13;1.30;;;26.60;99.90;;;;;;5024048;28;20314;-82
2023/01/03 04:35:37;;;;;;;5.95;1.30;;;26.40;99.90;;;;;;5023175;28;20191;-84
2023/01/03 04:38:10;;;;;;;6.13;1.20;;;26.20;99.90;;;;;;5016120;28;20286;-84
2023/01/03 04:40:45;;;;;;;7.10;1.45;;;26.10;99.90;;;;;;5016307;28;20281;-82
2023/01/03 04:46:07;;;;;;;6.55;1.30;;;26.10;99.90;;;;;;5031379;28;20249;-81
2023/01/03 04:48:38;;;;;;;6.90;1.50;;;26.20;99.90;;;;;;5015891;28;20192;-80
2023/01/03 04:51:10;;;;;;;6.28;1.60;;;26.20;99.90;;;;;;5020464;28;20670;-84
2023/01/03 04:53:42;;;;;;;9.48;1.48;;;26.40;99.90;;;;;;5034610;28;20202;-80
2023/01/03 04:56:13;;;;;;;6.72;1.38;;;26.80;99.90;;;;;;5017755;28;20214;-79
2023/01/03 04:58:45;;;;;;;6.55;1.30;;;27.00;99.90;;;;;;5035938;28;20277;-82
2023/01/03 05:01:15;;;;;;;4.78;1.30;;;27.20;99.90;;;;;;5026766;28;20190;-80
2023/01/03 05:03:46;;;;;;;6.95;1.48;;;27.40;99.90;;;;;;5025746;28;20210;-83
2023/01/03 05:06:17;;;;;;;7.78;1.33;;;27.60;99.90;;;;;;5022660;28;20760;-79
2023/01/03 05:08:50;;;;;;;7.55;1.90;;;27.50;99.90;;;;;;5025606;28;20280;-82
2023/01/03 05:11:24;;;;;;;9.02;1.40;;;27.30;99.90;;;;;;5034701;28;20618;-83
2023/01/03 05:13:55;;;;;;;7.32;1.63;;;27.20;99.90;;;;;;5034913;28;20741;-79
2023/01/03 05:16:25;;;;;;;6.45;1.52;;;27.20;99.90;;;;;;5035229;28;20226;-82
2023/01/03 05:18:58;;;;;;;8.15;1.83;;;27.10;99.90;;;;;;5016328;28;20596;-85
2023/01/03 05:27:06;;;;;;;7.85;1.40;;;27.00;99.90;;;;;;5034948;28;20194;-82
2023/01/03 05:29:38;;;;;;;7.22;1.80;;;26.90;99.90;;;;;;5015345;28;20217;-83
2023/01/03 05:32:09;;;;;;;9.50;1.67;;;26.80;99.90;;;;;;5032404;28;20226;-88
2023/01/03 05:34:40;;;;;;;9.75;1.38;;;26.70;99.90;;;;;;5030080;28;20282;-82
2023/01/03 05:37:10;;;;;;;6.85;1.58;;;26.50;99.90;;;;;;5026224;28;20662;-85
2023/01/03 05:39:43;;;;;;;4.95;1.23;;;26.20;99.90;;;;;;5018910;28;20236;-83
2023/01/03 05:42:14;;;;;;;4.88;1.40;;;26.00;99.90;;;;;;5017977;28;20278;-81
2023/01/03 05:44:45;;;;;;;8.27;1.83;;;25.90;99.90;;;;;;5034030;28;20222;-85
2023/01/03 05:47:15;;;;;;;7.63;1.48;;;25.90;99.90;;;;;;5034389;28;20785;-81
2023/01/03 05:49:46;;;;;;;5.18;1.58;;;25.80;99.90;;;;;;5021503;28;20278;-83
2023/01/03 05:52:17;;;;;;;7.75;1.55;;;25.70;99.90;;;;;;5030927;28;20193;-84
2023/01/03 05:54:50;;;;;;;5.95;1.60;;;25.70;99.90;;;;;;5014452;28;20639;-81
2023/01/03 05:57:20;;;;;;;6.18;1.92;;;25.70;99.90;;;;;;5025183;28;20195;-81
2023/01/03 05:59:51;;;;;;;5.40;1.50;;;25.60;99.90;;;;;;5014533;28;20225;-81
2023/01/03 06:02:22;;;;;;;5.65;1.38;;;25.70;99.90;;;;;;5014665;28;20197;-83
2023/01/03 06:04:53;;;;;;;5.03;1.73;;;25.70;99.90;;;;;;5026210;28;20309;-81
2023/01/03 06:07:24;;;;;;;6.45;1.73;;;25.80;99.90;;;;;;5029696;28;20281;-86
2023/01/03 06:09:56;;;;;;;4.97;1.30;;;25.90;99.90;;;;;;5027463;28;20204;-83
2023/01/03 06:12:29;;;;;;;6.57;1.45;;;25.80;99.90;;;;;;5032847;28;20285;-81
2023/01/03 06:15:01;;;;;;;5.90;1.42;;;25.90;99.90;;;;;;5031076;28;20208;-86
2023/01/03 06:20:19;;;;;;;5.85;1.50;;;25.80;99.90;;;;;;5027811;28;20198;-85
2023/01/03 06:22:50;;;;;;;4.60;1.25;;;25.60;99.90;;;;;;5028012;28;20294;-84
2023/01/03 06:25:23;;;;;;;7.97;1.75;;;25.40;99.90;;;;;;5031889;28;20218;-84
2023/01/03 06:27:54;;;;;;;7.88;1.33;;;25.30;99.90;;;;;;5027700;28;20198;-86
2023/01/03 06:30:25;;;;;;;5.55;1.33;;;25.20;99.90;;;;;;5014089;28;20659;-80
2023/01/03 06:32:55;;;;;;;8.60;2.08;;;25.10;99.90;;;;;;5021387;28;20580;-81
2023/01/03 06:35:26;;;;;;;7.25;1.30;;;25.00;99.90;;;;;;5033752;28;20278;-86
2023/01/03 06:37:57;;;;;;;11.60;1.50;;;24.90;99.90;;;;;;5030916;28;20657;-81
2023/01/03 06:40:30;;;;;;;6.55;1.90;;;24.90;99.90;;;;;;5015215;28;20275;-82
2023/01/03 06:43:01;;;;;;;5.72;1.50;;;24.90;99.90;;;;;;5031328;28;20655;-81
2023/01/03 06:53:52;;;;;;;6.32;1.50;;;24.90;99.90;;;;;;5018893;28;20230;-85
2023/01/03 06:56:24;;;;;;;5.70;1.27;;;25.00;99.90;;;;;;5028493;28;20273;-80
2023/01/03 06:58:55;;;;;;;5.85;1.30;;;25.20;99.90;;;;;;5031978;28;20654;-78
2023/01/03 07:01:26;;;;;;;5.88;1.50;;;25.30;99.90;;;;;;5033374;28;20226;-79
2023/01/03 07:03:57;;;;;;;6.28;1.50;;;25.40;99.90;;;;;;5032530;28;20222;-78
2023/01/03 07:06:28;;;;;;;5.97;1.40;;;25.50;99.90;;;;;;5031604;28;20285;-78
2023/01/03 07:08:59;;;;;;;8.63;1.70;;;25.40;99.90;;;;;;5028059;28;20198;-81
2023/01/03 07:11:31;;;;;;;4.57;1.45;;;25.40;99.90;;;;;;5033351;28;20666;-81
2023/01/03 07:14:02;;;;;;;7.63;1.58;;;25.30;99.90;;;;;;5033268;28;20194;-78
2023/01/03 07:16:34;;;;;;;8.73;1.70;;;25.20;99.90;;;;;;5031744;28;20716;-79
2023/01/03 07:19:05;;;;;;;6.57;1.70;;;25.20;99.90;;;;;;5033283;28;20634;-83
2023/01/03 07:21:36;;;;;;;8.35;1.50;;;25.20;99.90;;;;;;5033238;28;20273;-83
2023/01/03 07:24:10;;;;;;;5.75;1.30;;;25.20;99.90;;;;;;5033063;28;20329;-82
2023/01/03 07:26:43;;;;;;;5.20;1.45;;;25.10;99.90;;;;;;5033130;28;20190;-81
2023/01/03 07:29:14;;;;;;;8.85;1.73;;;25.10;99.90;;;;;;5016734;28;20285;-84
2023/01/03 07:31:44;;;;;;;5.32;1.23;;;25.00;99.90;;;;;;5014977;28;20206;-80
2023/01/03 07:34:17;;;;;;;5.38;1.75;;;25.00;99.90;;;;;;5021973;28;20198;-80
2023/01/03 07:36:48;;;;;;;6.50;1.40;;;24.90;99.90;;;;;;5017201;28;20194;-82
2023/01/03 07:39:19;;;;;;;5.40;1.58;;;24.90;99.90;;;;;;5027817;28;20196;-80
2023/01/03 07:44:38;;;;;;;8.98;1.83;;;24.70;99.90;;;;;;5017965;28;20222;-81
2023/01/03 07:47:09;;;;;;;6.75;1.63;;;24.70;99.90;;;;;;5033068;28;20230;-82
2023/01/03 07:49:40;;;;;;;7.00;1.75;;;24.60;99.90;;;;;;5026579;28;20190;-80
2023/01/03 07:52:11;;;;;;;5.10;1.40;;;24.50;99.90;;;;;;5027117;28;20208;-80
2023/01/03 07:54:42;;;;;;;7.35;1.77;;;24.50;99.90;;;;;;5019501;28;20273;-80
2023/01/03 07:57:15;;;;;;;12.40;1.88;;;24.40;99.90;;;;;;5037018;28;20285;-78
2023/01/03 07:59:46;;;;;;;3.72;1.50;;;24.30;99.90;;;;;;5029680;28;20198;-80
2023/01/03 08:02:19;;;;;;;9.27;1.70;;;24.30;99.90;;;;;;5019370;28;20321;-79
2023/01/03 08:04:49;;;;;;;6.50;1.85;;;24.30;99.90;;;;;;5028172;28;20218;-79
2023/01/03 08:07:20;;;;;;;9.70;1.88;;;24.20;99.90;;;;;;5023814;28;20199;-79
2023/01/03 08:15:26;;;;;;;8.85;1.67;;;24.20;99.90;;;;;;5032012;28;20268;-80
2023/01/03 08:17:57;;;;;;;6.90;1.80;;;24.20;99.90;;;;;;5024158;28;20293;-79
2023/01/03 08:20:27;;;;;;;8.23;1.65;;;24.10;99.90;;;;;;5031852;28;20200;-79
2023/01/03 08:23:00;;;;;;;6.18;1.58;;;24.10;99.90;;;;;;5030888;28;20225;-79
2023/01/03 08:25:31;;;;;;;7.15;1.75;;;24.10;99.90;;;;;;5033922;28;20213;-79
2023/01/03 08:28:06;;;;;;;7.95;1.70;;;24.00;99.90;;;;;;5033522;28;20191;-79
2023/01/03 08:30:42;;;;;;;7.07;1.58;;;24.00;99.90;;;;;;5029862;28;20229;-79
2023/01/03 08:33:15;;;;;;;5.95;1.65;;;24.00;99.90;;;;;;5023673;28;20226;-79
2023/01/03 08:35:50;;;;;;;7.75;1.83;;;24.00;99.90;;;;;;5028296;28;20336;-79
2023/01/03 08:38:26;;;;;;;8.40;1.55;;;24.00;99.90;;;;;;5035248;28;20280;-78
2023/01/03 08:40:58;;;;;;;8.10;1.80;;;23.90;99.90;;;;;;5031654;28;20285;-82
2023/01/03 08:43:34;;;;;;;8.02;1.70;;;23.90;99.90;;;;;;5034223;28;20198;-80
2023/01/03 08:46:09;;;;;;;10.95;1.98;;;23.80;99.90;;;;;;5032196;28;20247;-79
2023/01/03 08:48:41;;;;;;;7.50;1.75;;;23.90;99.90;;;;;;5024507;28;20195;-79
2023/01/03 08:51:12;;;;;;;9.07;1.85;;;23.80;99.90;;;;;;5031971;28;20229;-80
2023/01/03 08:53:43;;;;;;;7.65;1.90;;;23.80;99.90;;;;;;5034117;28;20354;-79
2023/01/03 08:56:13;;;;;;;4.65;1.63;;;23.80;99.90;;;;;;5026211;28;20281;-79
2023/01/03 08:58:46;;;;;;;8.85;2.00;;;23.70;99.90;;;;;;5032767;28;20705;-78
2023/01/03 09:01:19;;;;;;;13.60;2.15;;;23.70;99.90;;;;;;5029504;28;20198;-80
2023/01/03 09:03:51;;;;;;;7.90;1.90;;;23.70;99.90;;;;;;5028620;28;20207;-79
2023/01/03 09:06:22;;;;;;;9.27;2.00;;;23.70;99.90;;;;;;5030789;28;20281;-80
2023/01/03 09:08:53;;;;;;;9.15;2.33;;;23.70;99.90;;;;;;5025515;28;20205;-79
2023/01/03 09:11:24;;;;;;;8.52;2.08;;;23.70;99.90;;;;;;5031140;28;20194;-80
2023/01/03 09:13:58;;;;;;;9.85;2.10;;;23.70;99.90;;;;;;5032602;28;20198;-81
2023/01/03 09:16:28;;;;;;;10.30;2.25;;;23.70;99.90;;;;;;5019133;28;20194;-78
2023/01/03 09:19:01;;;;;;;7.65;2.25;;;23.60;99.90;;;;;;5022932;28;20195;-80
2023/01/03 09:21:32;;;;;;;8.15;2.00;;;23.60;99.90;;;;;;5020737;28;20282;-81
2023/01/03 09:24:03;;;;;;;9.55;2.20;;;23.60;99.90;;;;;;5027438;28;20206;-79
2023/01/03 09:26:34;;;;;;;13.80;2.88;;;23.60;99.90;;;;;;5020774;28;20281;-79
2023/01/03 09:29:07;;;;;;;10.80;2.42;;;23.60;99.90;;;;;;5029384;28;20206;-81
2023/01/03 09:31:37;;;;;;;10.93;2.28;;;23.60;99.90;;;;;;5023921;28;20203;-79
2023/01/03 09:34:08;;;;;;;8.88;2.00;;;23.60;99.90;;;;;;5025728;28;20294;-80
2023/01/03 09:36:39;;;;;;;11.45;2.13;;;23.50;99.90;;;;;;5026825;28;20198;-79
2023/01/03 09:39:10;;;;;;;9.02;1.90;;;23.60;99.90;;;;;;5024530;28;20549;-80
2023/01/03 09:41:41;;;;;;;9.80;1.80;;;23.60;99.90;;;;;;5023526;28;20622;-79
2023/01/03 09:44:14;;;;;;;9.60;1.70;;;23.60;99.90;;;;;;5016395;28;20205;-78
2023/01/03 09:46:45;;;;;;;8.95;1.98;;;23.60;99.90;;;;;;5031796;28;20321;-78
2023/01/03 09:49:18;;;;;;;9.80;2.30;;;23.60;99.90;;;;;;5034571;28;20194;-80
2023/01/03 10:06:32;;;;;;;12.07;1.92;;;23.60;99.90;;;;;;5023096;28;20230;-81
2023/01/03 10:09:17;;;;;;;9.15;2.03;;;23.60;99.90;;;;;;5021282;28;20675;-79
2023/01/03 10:12:02;;;;;;;10.07;2.08;;;23.60;99.90;;;;;;5021703;28;20309;-80
2023/01/03 10:14:47;;;;;;;11.10;2.15;;;23.50;99.90;;;;;;5025195;28;20218;-86
2023/01/03 10:17:27;;;;;;;9.70;2.20;;;23.40;99.90;;;;;;5014104;28;20187;-84
2023/01/03 10:20:15;;;;;;;11.80;2.30;;;23.20;99.90;;;;;;5021617;28;20262;-87
2023/01/03 10:22:49;;;;;;;9.15;2.35;;;22.90;99.90;;;;;;5024871;28;20297;-88
2023/01/03 10:25:25;;;;;;;15.07;2.80;;;22.60;99.90;;;;;;5033467;28;20236;-87
2023/01/03 10:28:01;;;;;;;11.95;2.33;;;22.50;99.90;;;;;;5025466;28;20288;-89
2023/01/03 10:33:40;;;;;;;9.38;2.38;;;22.30;99.90;;;;;;5013928;28;20328;-89
2023/01/03 10:36:15;;;;;;;12.75;2.67;;;22.30;99.90;;;;;;5027043;28;20281;-83
2023/01/03 10:38:46;;;;;;;14.45;2.40;;;22.30;99.90;;;;;;5013756;28;20194;-85
2023/01/03 10:41:22;;;;;;;13.65;2.28;;;22.20;99.90;;;;;;5023703;28;20198;-87
2023/01/03 10:44:03;;;;;;;10.30;2.67;;;22.20;99.90;;;;;;5033718;28;20221;-85
2023/01/03 10:46:34;;;;;;;14.13;2.25;;;22.10;99.90;;;;;;5032564;28;20340;-84
2023/01/03 10:49:22;;;;;;;10.23;2.60;;;22.00;99.90;;;;;;5024621;28;20190;-82
2023/01/03 10:52:01;;;;;;;10.90;2.08;;;22.00;99.90;;;;;;5014989;28;20209;-82
2023/01/03 10:54:58;;;;;;;11.80;2.22;;;22.00;99.90;;;;;;5014417;28;20663;-92
2023/01/03 10:57:42;;;;;;;10.43;2.40;;;21.90;99.90;;;;;;5021882;28;20229;-92
2023/01/03 11:00:32;;;;;;;12.75;2.28;;;22.00;99.90;;;;;;5032865;28;20198;-85
2023/01/03 11:03:18;;;;;;;14.60;2.42;;;22.00;99.90;;;;;;5015192;28;20202;-82
2023/01/03 11:06:08;;;;;;;10.65;2.35;;;22.00;99.90;;;;;;5024390;28;20305;-88
2023/01/03 11:08:45;;;;;;;10.80;2.10;;;22.00;99.90;;;;;;5014459;28;20674;-88
2023/01/03 11:12:07;;;;;;;10.57;2.20;;;22.00;99.90;;;;;;5020915;28;20269;-86
2023/01/03 11:14:45;;;;;;;7.97;2.00;;;22.00;99.90;;;;;;5010583;28;20601;-87
2023/01/03 11:17:28;;;;;;;11.52;2.15;;;22.00;99.90;;;;;;5013779;28;20228;-87
2023/01/03 11:19:59;;;;;;;11.20;2.17;;;22.00;99.90;;;;;;5025910;28;20658;-87
2023/01/03 11:22:39;;;;;;;9.63;2.22;;;22.00;99.90;;;;;;5033535;28;20273;-86
2023/01/03 11:25:36;;;;;;;12.70;2.50;;;22.00;99.90;;;;;;5033799;28;20222;-93
2023/01/03 11:28:39;;;;;;;12.60;2.30;;;22.00;99.90;;;;;;5034264;28;20610;-89
2023/01/03 11:31:17;;;;;;;11.13;2.17;;;22.00;99.90;;;;;;4990873;28;20218;-91
2023/01/03 11:34:01;;;;;;;11.07;2.33;;;22.00;99.90;;;;;;5038849;28;20200;-91
2023/01/03 11:36:42;;;;;;;12.43;2.35;;;22.00;99.90;;;;;;5029977;28;20198;-86
2023/01/03 11:39:28;;;;;;;11.35;2.00;;;22.00;99.90;;;;;;5017664;28;20191;-87
2023/01/03 11:42:16;;;;;;;8.07;1.90;;;22.00;99.90;;;;;;5017693;28;20277;-85
2023/01/03 11:45:14;;;;;;;8.38;2.47;;;22.00;99.90;;;;;;5020666;28;20273;-88
2023/01/03 11:47:53;;;;;;;10.45;2.15;;;22.00;99.90;;;;;;5017161;28;20253;-90
2023/01/03 11:50:36;;;;;;;10.02;2.47;;;22.00;99.90;;;;;;5017750;28;20223;-90
2023/01/03 11:53:14;;;;;;;7.30;1.77;;;22.00;99.90;;;;;;5018034;28;20651;-89
2023/01/03 11:56:04;;;;;;;7.97;1.90;;;22.00;99.90;;;;;;5017351;28;20205;-88
2023/01/03 11:59:12;;;;;;;9.38;2.20;;;22.00;99.90;;;;;;5017397;28;20214;-84
2023/01/03 12:02:10;;;;;;;10.52;2.28;;;22.10;99.90;;;;;;5011835;28;20293;-88
2023/01/03 12:04:52;;;;;;;12.85;2.22;;;22.10;99.90;;;;;;4999274;28;20237;-90
2023/01/03 12:07:29;;;;;;;8.82;2.35;;;22.10;99.90;;;;;;5035565;28;20274;-91
2023/01/03 12:10:05;;;;;;;10.15;2.35;;;22.10;99.90;;;;;;5035309;28;20190;-87
2023/01/03 12:13:18;;;;;;;14.45;2.40;;;22.20;99.90;;;;;;5027482;28;20195;-84
2023/01/03 12:15:52;;;;;;;11.98;2.20;;;22.20;99.90;;;;;;5013670;28;20293;-84
2023/01/03 12:18:30;;;;;;;11.10;2.38;;;22.20;99.90;;;;;;5036307;28;20240;-86
2023/01/03 12:21:06;;;;;;;11.07;2.17;;;22.20;99.90;;;;;;5036919;28;20186;-87
2023/01/03 12:23:42;;;;;;;7.45;1.98;;;22.30;99.90;;;;;;5036650;28;20225;-88
2023/01/03 12:26:15;;;;;;;10.75;2.30;;;22.20;99.90;;;;;;5037551;28;20221;-88
2023/01/03 12:28:52;;;;;;;5.78;1.80;;;22.20;99.90;;;;;;5024762;28;20302;-84
2023/01/03 12:31:29;;;;;;;9.75;2.50;;;22.20;99.90;;;;;;5027172;28;20622;-88
2023/01/03 12:34:10;;;;;;;7.57;1.90;;;22.20;99.90;;;;;;5016270;28;20289;-84
2023/01/03 12:36:49;;;;;;;10.73;2.42;;;22.30;99.90;;;;;;5030258;28;20574;-86
2023/01/03 12:39:36;;;;;;;7.40;1.73;;;22.30;99.90;;;;;;5026295;28;20569;-86
2023/01/03 12:42:13;;;;;;;11.20;2.42;;;22.30;99.90;;;;;;5029446;28;20277;-88
2023/01/03 12:44:48;;;;;;;9.63;2.03;;;22.30;99.90;;;;;;5030116;28;20202;-88
2023/01/03 12:47:29;;;;;;;8.82;2.05;;;22.30;99.90;;;;;;5019445;28;20316;-82
2023/01/03 12:50:07;;;;;;;8.15;1.95;;;22.30;99.90;;;;;;5022150;28;20226;-89
2023/01/03 12:52:38;;;;;;;8.77;2.10;;;22.30;99.90;;;;;;5030584;28;20662;-87
2023/01/03 12:55:20;;;;;;;9.40;1.73;;;22.30;99.90;;;;;;5031402;28;20230;-86
2023/01/03 12:58:23;;;;;;;12.30;1.77;;;22.30;99.90;;;;;;5015965;28;20639;-88
2023/01/03 13:01:07;;;;;;;14.90;2.28;;;22.30;99.90;;;;;;5028939;28;20210;-83
2023/01/03 13:03:43;;;;;;;10.18;2.15;;;22.40;99.90;;;;;;5015694;28;20217;-88
2023/01/03 13:06:20;;;;;;;10.60;2.22;;;22.40;99.90;;;;;;5015611;28;20671;-89
2023/01/03 13:08:56;;;;;;;8.90;1.85;;;22.30;99.90;;;;;;5015715;28;20199;-86
2023/01/03 13:11:32;;;;;;;12.23;2.40;;;22.20;99.90;;;;;;5017877;28;20564;-85
2023/01/03 13:14:19;;;;;;;9.25;2.22;;;22.30;99.90;;;;;;5035305;28;20190;-86
2023/01/03 13:16:53;;;;;;;10.57;2.13;;;22.30;99.90;;;;;;5035296;28;20229;-89
2023/01/03 13:19:59;;;;;;;12.27;2.40;;;22.30;99.90;;;;;;5020788;28;20286;-81
2023/01/03 13:22:53;;;;;;;12.55;2.35;;;22.30;99.90;;;;;;5015303;28;20286;-86
2023/01/03 13:25:42;;;;;;;8.30;1.88;;;22.20;99.90;;;;;;5005851;28;20241;-86
2023/01/03 13:28:34;;;;;;;16.20;2.83;;;22.20;99.90;;;;;;5015235;28;20282;-85
2023/01/03 13:31:39;;;;;;;13.85;2.13;;;22.30;99.90;;;;;;5011495;28;20201;-81
2023/01/03 13:34:32;;;;;;;15.32;2.40;;;22.30;99.90;;;;;;4976347;28;20206;-83
2023/01/03 13:37:30;;;;;;;10.80;1.92;;;22.30;99.90;;;;;;5034496;28;20680;-84
2023/01/03 13:40:27;;;;;;;9.32;1.65;;;22.30;99.90;;;;;;5034650;28;20278;-82
2023/01/03 13:43:17;;;;;;;12.98;2.53;;;22.20;99.90;;;;;;5021912;28;20244;-81
2023/01/03 13:45:57;;;;;;;10.00;1.98;;;22.20;99.90;;;;;;5026476;28;20309;-85
2023/01/03 13:48:38;;;;;;;12.65;2.55;;;22.20;99.90;;;;;;5034180;28;20201;-82
2023/01/03 13:51:33;;;;;;;14.23;2.20;;;22.20;99.90;;;;;;5034527;28;20193;-82
2023/01/03 13:54:07;;;;;;;9.98;2.17;;;22.20;99.90;;;;;;5014357;28;20550;-83
2023/01/03 13:57:04;;;;;;;13.25;2.00;;;22.20;99.90;;;;;;5014545;28;20282;-82
2023/01/03 13:59:44;;;;;;;13.73;2.25;;;22.20;99.90;;;;;;5014637;28;20602;-84
2023/01/03 14:02:54;;;;;;;10.35;2.00;;;22.20;99.90;;;;;;5014581;28;20278;-82
2023/01/03 14:05:53;;;;;;;9.45;2.25;;;22.20;99.90;;;;;;5014692;28;20833;-81
2023/01/03 14:08:45;;;;;;;11.77;2.15;;;22.20;99.90;;;;;;5014347;28;20663;-81
2023/01/03 14:11:46;;;;;;;14.10;2.08;;;22.20;99.90;;;;;;5014468;28;20647;-82
2023/01/03 14:14:19;;;;;;;10.43;2.08;;;22.20;99.90;;;;;;4995514;28;20285;-82
2023/01/03 14:16:52;;;;;;;11.52;1.70;;;22.20;99.90;;;;;;5033712;28;20606;-82
2023/01/03 14:19:26;;;;;;;11.80;2.40;;;22.20;99.90;;;;;;5033940;28;20277;-81
2023/01/03 14:22:00;;;;;;;6.10;1.60;;;22.20;99.90;;;;;;5033741;28;20269;-82
2023/01/03 14:24:35;;;;;;;10.13;2.38;;;22.30;99.90;;;;;;5033942;28;20277;-82
2023/01/03 14:27:13;;;;;;;8.48;1.80;;;22.30;99.90;;;;;;5024985;28;20232;-81
2023/01/03 14:29:49;;;;;;;8.32;2.15;;;22.30;99.90;;;;;;5033825;28;20281;-82
2023/01/03 14:32:25;;;;;;;10.43;2.30;;;22.30;99.90;;;;;;5033941;28;20314;-82
2023/01/03 14:34:56;;;;;;;10.95;2.00;;;22.30;99.90;;;;;;5033808;28;20669;-82
2023/01/03 14:37:29;;;;;;;8.77;2.25;;;22.30;99.90;;;;;;5027706;28;20278;-82
2023/01/03 14:40:02;;;;;;;9.50;2.17;;;22.30;99.90;;;;;;5033768;28;20611;-83
2023/01/03 14:42:33;;;;;;;10.80;2.00;;;22.30;99.90;;;;;;5033652;28;20273;-82
2023/01/03 14:45:05;;;;;;;8.63;1.80;;;22.30;99.90;;;;;;5030965;28;20986;-82